sensor_id;sensor_type;location;lat;lon;timestamp;P1;durP1;ratioP1;P2;durP2;ratioP2
12840;SDS011;6487;48.626;12.486;2023-02-07T00:01:33;12.93;;;8.83;;
12840;SDS011;6487;48.626;12.486;2023-02-07T00:04:02;12.50;;;8.87;;
12840;SDS011;6487;48.626;12.486;2023-02-07T00:06:32;13.17;;;9.33;;
12840;SDS011;6487;48.626;12.486;2023-02-07T00:09:03;12.63;;;8.73;;
12840;SDS011;6487;48.626;12.486;2023-02-07T00:11:34;12.20;;;8.30;;
12840;SDS011;6487;48.626;12.486;2023-02-07T00:14:06;11.67;;;7.80;;
12840;SDS011;6487;48.626;12.486;2023-02-07T00:16:38;10.83;;;8.23;;
12840;SDS011;6487;48.626;12.486;2023-02-07T00:19:07;11.43;;;8.93;;
12840;SDS011;6487;48.626;12.486;2023-02-07T00:21:36;15.83;;;8.77;;
12840;SDS011;6487;48.626;12.486;2023-02-07T00:24:05;13.70;;;8.70;;
12840;SDS011;6487;48.626;12.486;2023-02-07T00:26:34;11.73;;;8.63;;
12840;SDS011;6487;48.626;12.486;2023-02-07T00:29:04;14.97;;;7.93;;
12840;SDS011;6487;48.626;12.486;2023-02-07T00:31:33;11.50;;;7.43;;
12840;SDS011;6487;48.626;12.486;2023-02-07T00:34:03;11.37;;;8.80;;
12840;SDS011;6487;48.626;12.486;2023-02-07T00:36:34;12.90;;;9.07;;
12840;SDS011;6487;48.626;12.486;2023-02-07T00:39:04;11.63;;;8.53;;
12840;SDS011;6487;48.626;12.486;2023-02-07T00:41:34;13.63;;;9.87;;
12840;SDS011;6487;48.626;12.486;2023-02-07T00:44:04;11.97;;;9.07;;
12840;SDS011;6487;48.626;12.486;2023-02-07T00:46:33;15.80;;;9.73;;
12840;SDS011;6487;48.626;12.486;2023-02-07T00:49:02;12.97;;;8.57;;
12840;SDS011;6487;48.626;12.486;2023-02-07T00:51:31;14.43;;;10.03;;
12840;SDS011;6487;48.626;12.486;2023-02-07T00:54:00;12.37;;;8.90;;
12840;SDS011;6487;48.626;12.486;2023-02-07T00:56:29;13.43;;;9.33;;
12840;SDS011;6487;48.626;12.486;2023-02-07T00:58:59;12.40;;;9.23;;
12840;SDS011;6487;48.626;12.486;2023-02-07T01:01:28;13.47;;;9.47;;
12840;SDS011;6487;48.626;12.486;2023-02-07T01:03:57;11.90;;;8.03;;
12840;SDS011;6487;48.626;12.486;2023-02-07T01:06:26;13.73;;;9.73;;
12840;SDS011;6487;48.626;12.486;2023-02-07T01:08:59;14.00;;;8.73;;
12840;SDS011;6487;48.626;12.486;2023-02-07T01:11:29;13.70;;;9.13;;
12840;SDS011;6487;48.626;12.486;2023-02-07T01:13:58;11.40;;;8.10;;
12840;SDS011;6487;48.626;12.486;2023-02-07T01:16:29;12.73;;;8.60;;
12840;SDS011;6487;48.626;12.486;2023-02-07T01:19:01;11.40;;;8.07;;
12840;SDS011;6487;48.626;12.486;2023-02-07T01:21:32;14.73;;;9.10;;
12840;SDS011;6487;48.626;12.486;2023-02-07T01:24:00;9.93;;;8.17;;
12840;SDS011;6487;48.626;12.486;2023-02-07T01:26:29;14.17;;;8.97;;
12840;SDS011;6487;48.626;12.486;2023-02-07T01:28:57;11.03;;;8.30;;
12840;SDS011;6487;48.626;12.486;2023-02-07T01:31:29;14.57;;;9.20;;
12840;SDS011;6487;48.626;12.486;2023-02-07T01:33:58;14.90;;;9.10;;
12840;SDS011;6487;48.626;12.486;2023-02-07T01:36:30;16.80;;;9.30;;
12840;SDS011;6487;48.626;12.486;2023-02-07T01:38:59;14.83;;;8.80;;
12840;SDS011;6487;48.626;12.486;2023-02-07T01:41:29;13.37;;;8.67;;
12840;SDS011;6487;48.626;12.486;2023-02-07T01:43:59;9.77;;;8.20;;
12840;SDS011;6487;48.626;12.486;2023-02-07T01:46:33;19.10;;;9.07;;
12840;SDS011;6487;48.626;12.486;2023-02-07T01:49:04;12.67;;;8.43;;
12840;SDS011;6487;48.626;12.486;2023-02-07T01:51:36;14.17;;;8.80;;
12840;SDS011;6487;48.626;12.486;2023-02-07T01:54:10;14.60;;;9.03;;
12840;SDS011;6487;48.626;12.486;2023-02-07T01:56:40;14.20;;;9.00;;
12840;SDS011;6487;48.626;12.486;2023-02-07T01:59:13;14.00;;;8.97;;
12840;SDS011;6487;48.626;12.486;2023-02-07T02:01:43;11.67;;;8.97;;
12840;SDS011;6487;48.626;12.486;2023-02-07T02:04:12;10.17;;;8.33;;
12840;SDS011;6487;48.626;12.486;2023-02-07T02:06:41;12.67;;;9.03;;
12840;SDS011;6487;48.626;12.486;2023-02-07T02:09:11;11.47;;;8.23;;
12840;SDS011;6487;48.626;12.486;2023-02-07T02:11:55;12.40;;;8.37;;
12840;SDS011;6487;48.626;12.486;2023-02-07T02:14:57;12.33;;;9.20;;
12840;SDS011;6487;48.626;12.486;2023-02-07T02:17:47;12.60;;;8.87;;
12840;SDS011;6487;48.626;12.486;2023-02-07T02:24:18;13.73;;;9.10;;
12840;SDS011;6487;48.626;12.486;2023-02-07T02:27:15;11.27;;;8.67;;
12840;SDS011;6487;48.626;12.486;2023-02-07T02:30:16;14.43;;;9.47;;
12840;SDS011;6487;48.626;12.486;2023-02-07T02:33:25;12.00;;;9.37;;
12840;SDS011;6487;48.626;12.486;2023-02-07T02:36:07;12.43;;;9.37;;
12840;SDS011;6487;48.626;12.486;2023-02-07T02:38:48;15.80;;;10.67;;
12840;SDS011;6487;48.626;12.486;2023-02-07T02:41:26;11.63;;;9.13;;
12840;SDS011;6487;48.626;12.486;2023-02-07T02:43:58;12.37;;;9.63;;
12840;SDS011;6487;48.626;12.486;2023-02-07T02:46:33;10.93;;;8.70;;
12840;SDS011;6487;48.626;12.486;2023-02-07T02:49:06;13.63;;;9.13;;
12840;SDS011;6487;48.626;12.486;2023-02-07T02:51:38;14.27;;;10.47;;
12840;SDS011;6487;48.626;12.486;2023-02-07T02:57:00;12.67;;;9.90;;
12840;SDS011;6487;48.626;12.486;2023-02-07T03:06:39;13.87;;;9.70;;
12840;SDS011;6487;48.626;12.486;2023-02-07T03:09:24;13.93;;;10.00;;
12840;SDS011;6487;48.626;12.486;2023-02-07T03:12:04;14.83;;;9.57;;
12840;SDS011;6487;48.626;12.486;2023-02-07T03:14:44;13.50;;;10.43;;
12840;SDS011;6487;48.626;12.486;2023-02-07T03:17:21;13.27;;;9.40;;
12840;SDS011;6487;48.626;12.486;2023-02-07T03:19:57;12.33;;;9.77;;
12840;SDS011;6487;48.626;12.486;2023-02-07T03:22:32;14.30;;;9.97;;
12840;SDS011;6487;48.626;12.486;2023-02-07T03:25:01;13.50;;;8.43;;
12840;SDS011;6487;48.626;12.486;2023-02-07T03:27:32;11.30;;;8.50;;
12840;SDS011;6487;48.626;12.486;2023-02-07T03:30:04;10.23;;;7.57;;
12840;SDS011;6487;48.626;12.486;2023-02-07T03:32:38;9.97;;;7.07;;
12840;SDS011;6487;48.626;12.486;2023-02-07T03:35:11;13.63;;;8.10;;
12840;SDS011;6487;48.626;12.486;2023-02-07T03:37:47;13.17;;;8.27;;
12840;SDS011;6487;48.626;12.486;2023-02-07T03:40:19;9.83;;;7.40;;
12840;SDS011;6487;48.626;12.486;2023-02-07T03:42:49;11.20;;;7.97;;
12840;SDS011;6487;48.626;12.486;2023-02-07T03:45:21;15.37;;;8.87;;
12840;SDS011;6487;48.626;12.486;2023-02-07T03:47:50;12.67;;;8.87;;
12840;SDS011;6487;48.626;12.486;2023-02-07T03:50:18;11.10;;;8.00;;
12840;SDS011;6487;48.626;12.486;2023-02-07T03:52:48;11.80;;;8.13;;
12840;SDS011;6487;48.626;12.486;2023-02-07T03:55:16;12.27;;;7.50;;
12840;SDS011;6487;48.626;12.486;2023-02-07T03:57:45;10.37;;;7.77;;
12840;SDS011;6487;48.626;12.486;2023-02-07T04:00:14;10.77;;;6.77;;
12840;SDS011;6487;48.626;12.486;2023-02-07T04:02:42;10.27;;;7.43;;
12840;SDS011;6487;48.626;12.486;2023-02-07T04:05:11;11.13;;;7.53;;
12840;SDS011;6487;48.626;12.486;2023-02-07T04:07:39;11.33;;;8.10;;
12840;SDS011;6487;48.626;12.486;2023-02-07T04:10:10;12.17;;;7.93;;
12840;SDS011;6487;48.626;12.486;2023-02-07T04:12:38;12.10;;;8.13;;
12840;SDS011;6487;48.626;12.486;2023-02-07T04:15:07;10.73;;;7.73;;
12840;SDS011;6487;48.626;12.486;2023-02-07T04:17:36;12.90;;;7.60;;
12840;SDS011;6487;48.626;12.486;2023-02-07T04:20:05;10.90;;;7.70;;
12840;SDS011;6487;48.626;12.486;2023-02-07T04:22:35;10.43;;;7.53;;
12840;SDS011;6487;48.626;12.486;2023-02-07T04:25:03;10.77;;;7.60;;
12840;SDS011;6487;48.626;12.486;2023-02-07T04:27:34;10.07;;;7.17;;
12840;SDS011;6487;48.626;12.486;2023-02-07T04:30:02;11.97;;;7.77;;
12840;SDS011;6487;48.626;12.486;2023-02-07T04:32:31;9.33;;;7.03;;
12840;SDS011;6487;48.626;12.486;2023-02-07T04:34:59;9.70;;;7.30;;
12840;SDS011;6487;48.626;12.486;2023-02-07T04:37:28;11.87;;;7.33;;
12840;SDS011;6487;48.626;12.486;2023-02-07T04:39:56;11.53;;;7.87;;
12840;SDS011;6487;48.626;12.486;2023-02-07T04:42:24;9.50;;;6.90;;
12840;SDS011;6487;48.626;12.486;2023-02-07T04:44:54;11.50;;;7.83;;
12840;SDS011;6487;48.626;12.486;2023-02-07T04:47:22;9.47;;;7.23;;
12840;SDS011;6487;48.626;12.486;2023-02-07T04:49:50;14.40;;;8.00;;
12840;SDS011;6487;48.626;12.486;2023-02-07T04:52:19;12.33;;;8.30;;
12840;SDS011;6487;48.626;12.486;2023-02-07T04:54:47;10.00;;;7.43;;
12840;SDS011;6487;48.626;12.486;2023-02-07T04:57:15;10.53;;;7.37;;
12840;SDS011;6487;48.626;12.486;2023-02-07T04:59:43;10.60;;;7.37;;
12840;SDS011;6487;48.626;12.486;2023-02-07T05:02:13;13.20;;;8.20;;
12840;SDS011;6487;48.626;12.486;2023-02-07T05:04:41;13.73;;;7.23;;
12840;SDS011;6487;48.626;12.486;2023-02-07T05:07:10;9.23;;;7.17;;
12840;SDS011;6487;48.626;12.486;2023-02-07T05:09:38;10.93;;;7.67;;
12840;SDS011;6487;48.626;12.486;2023-02-07T05:12:06;10.87;;;7.77;;
12840;SDS011;6487;48.626;12.486;2023-02-07T05:14:34;11.90;;;7.53;;
12840;SDS011;6487;48.626;12.486;2023-02-07T05:17:03;11.63;;;7.97;;
12840;SDS011;6487;48.626;12.486;2023-02-07T05:19:33;12.60;;;8.30;;
12840;SDS011;6487;48.626;12.486;2023-02-07T05:22:01;14.03;;;8.87;;
12840;SDS011;6487;48.626;12.486;2023-02-07T05:24:29;14.43;;;8.77;;
12840;SDS011;6487;48.626;12.486;2023-02-07T05:26:58;11.23;;;7.57;;
12840;SDS011;6487;48.626;12.486;2023-02-07T05:29:26;16.10;;;8.73;;
12840;SDS011;6487;48.626;12.486;2023-02-07T05:31:54;13.17;;;8.13;;
12840;SDS011;6487;48.626;12.486;2023-02-07T05:34:42;11.97;;;8.03;;
12840;SDS011;6487;48.626;12.486;2023-02-07T05:37:10;13.53;;;8.50;;
12840;SDS011;6487;48.626;12.486;2023-02-07T05:39:38;11.90;;;8.23;;
12840;SDS011;6487;48.626;12.486;2023-02-07T05:42:06;11.83;;;7.97;;
12840;SDS011;6487;48.626;12.486;2023-02-07T05:44:35;13.30;;;8.13;;
12840;SDS011;6487;48.626;12.486;2023-02-07T05:47:03;13.20;;;8.50;;
12840;SDS011;6487;48.626;12.486;2023-02-07T05:49:31;12.67;;;8.37;;
12840;SDS011;6487;48.626;12.486;2023-02-07T05:52:01;15.87;;;8.27;;
12840;SDS011;6487;48.626;12.486;2023-02-07T05:54:30;13.13;;;8.77;;
12840;SDS011;6487;48.626;12.486;2023-02-07T05:56:58;15.50;;;8.97;;
12840;SDS011;6487;48.626;12.486;2023-02-07T05:59:26;14.00;;;9.37;;
12840;SDS011;6487;48.626;12.486;2023-02-07T06:01:54;14.97;;;9.10;;
12840;SDS011;6487;48.626;12.486;2023-02-07T06:04:23;12.10;;;8.60;;
12840;SDS011;6487;48.626;12.486;2023-02-07T06:06:51;15.10;;;9.47;;
12840;SDS011;6487;48.626;12.486;2023-02-07T06:09:21;13.03;;;9.00;;
12840;SDS011;6487;48.626;12.486;2023-02-07T06:11:49;14.13;;;9.30;;
12840;SDS011;6487;48.626;12.486;2023-02-07T06:14:18;14.33;;;8.97;;
12840;SDS011;6487;48.626;12.486;2023-02-07T06:16:46;13.17;;;9.20;;
12840;SDS011;6487;48.626;12.486;2023-02-07T06:19:14;15.60;;;9.70;;
12840;SDS011;6487;48.626;12.486;2023-02-07T06:21:43;16.10;;;10.33;;
12840;SDS011;6487;48.626;12.486;2023-02-07T06:24:12;15.27;;;9.50;;
12840;SDS011;6487;48.626;12.486;2023-02-07T06:26:42;14.73;;;9.00;;
12840;SDS011;6487;48.626;12.486;2023-02-07T06:29:12;14.00;;;10.10;;
12840;SDS011;6487;48.626;12.486;2023-02-07T06:31:40;13.90;;;10.10;;
12840;SDS011;6487;48.626;12.486;2023-02-07T06:34:09;13.27;;;9.37;;
12840;SDS011;6487;48.626;12.486;2023-02-07T06:36:38;15.20;;;10.07;;
12840;SDS011;6487;48.626;12.486;2023-02-07T06:39:06;17.40;;;10.43;;
12840;SDS011;6487;48.626;12.486;2023-02-07T06:41:34;20.33;;;11.37;;
12840;SDS011;6487;48.626;12.486;2023-02-07T06:44:04;16.50;;;9.90;;
12840;SDS011;6487;48.626;12.486;2023-02-07T06:46:32;15.97;;;10.40;;
12840;SDS011;6487;48.626;12.486;2023-02-07T06:49:01;12.77;;;9.53;;
12840;SDS011;6487;48.626;12.486;2023-02-07T06:51:29;16.00;;;10.23;;
12840;SDS011;6487;48.626;12.486;2023-02-07T06:53:58;14.03;;;10.07;;
12840;SDS011;6487;48.626;12.486;2023-02-07T06:56:28;15.33;;;10.70;;
12840;SDS011;6487;48.626;12.486;2023-02-07T06:58:56;14.63;;;10.70;;
12840;SDS011;6487;48.626;12.486;2023-02-07T07:01:26;19.20;;;11.80;;
12840;SDS011;6487;48.626;12.486;2023-02-07T07:03:54;17.80;;;11.50;;
12840;SDS011;6487;48.626;12.486;2023-02-07T07:06:23;18.40;;;11.60;;
12840;SDS011;6487;48.626;12.486;2023-02-07T07:08:51;16.57;;;10.97;;
12840;SDS011;6487;48.626;12.486;2023-02-07T07:11:20;19.73;;;13.37;;
12840;SDS011;6487;48.626;12.486;2023-02-07T07:13:48;20.13;;;13.43;;
12840;SDS011;6487;48.626;12.486;2023-02-07T07:16:17;21.07;;;13.23;;
12840;SDS011;6487;48.626;12.486;2023-02-07T07:18:46;18.83;;;12.17;;
12840;SDS011;6487;48.626;12.486;2023-02-07T07:21:15;21.80;;;12.80;;
12840;SDS011;6487;48.626;12.486;2023-02-07T07:23:43;20.97;;;12.13;;
12840;SDS011;6487;48.626;12.486;2023-02-07T07:26:11;17.37;;;10.90;;
12840;SDS011;6487;48.626;12.486;2023-02-07T07:28:39;15.80;;;10.60;;
12840;SDS011;6487;48.626;12.486;2023-02-07T07:31:08;14.80;;;10.03;;
12840;SDS011;6487;48.626;12.486;2023-02-07T07:33:36;16.00;;;11.70;;
12840;SDS011;6487;48.626;12.486;2023-02-07T07:36:06;21.63;;;12.63;;
12840;SDS011;6487;48.626;12.486;2023-02-07T07:38:35;19.10;;;11.67;;
12840;SDS011;6487;48.626;12.486;2023-02-07T07:41:04;17.70;;;12.20;;
12840;SDS011;6487;48.626;12.486;2023-02-07T07:43:32;23.07;;;12.97;;
12840;SDS011;6487;48.626;12.486;2023-02-07T07:46:00;23.03;;;14.20;;
12840;SDS011;6487;48.626;12.486;2023-02-07T07:48:29;20.07;;;13.73;;
12840;SDS011;6487;48.626;12.486;2023-02-07T07:50:57;22.93;;;13.63;;
12840;SDS011;6487;48.626;12.486;2023-02-07T07:53:27;20.63;;;12.47;;
12840;SDS011;6487;48.626;12.486;2023-02-07T07:55:56;38.90;;;24.47;;
12840;SDS011;6487;48.626;12.486;2023-02-07T07:58:24;24.80;;;16.27;;
12840;SDS011;6487;48.626;12.486;2023-02-07T08:00:54;22.70;;;15.00;;
12840;SDS011;6487;48.626;12.486;2023-02-07T08:03:22;19.93;;;13.80;;
12840;SDS011;6487;48.626;12.486;2023-02-07T08:05:51;24.13;;;14.30;;
12840;SDS011;6487;48.626;12.486;2023-02-07T08:08:20;17.13;;;11.63;;
12840;SDS011;6487;48.626;12.486;2023-02-07T08:10:49;18.83;;;12.43;;
12840;SDS011;6487;48.626;12.486;2023-02-07T08:13:18;19.47;;;11.77;;
12840;SDS011;6487;48.626;12.486;2023-02-07T08:15:46;21.23;;;13.63;;
12840;SDS011;6487;48.626;12.486;2023-02-07T08:18:15;16.67;;;12.20;;
12840;SDS011;6487;48.626;12.486;2023-02-07T08:20:43;20.23;;;12.43;;
12840;SDS011;6487;48.626;12.486;2023-02-07T08:23:11;20.63;;;13.70;;
12840;SDS011;6487;48.626;12.486;2023-02-07T08:25:40;19.83;;;12.97;;
12840;SDS011;6487;48.626;12.486;2023-02-07T08:28:10;17.93;;;13.10;;
12840;SDS011;6487;48.626;12.486;2023-02-07T08:30:39;19.17;;;13.83;;
12840;SDS011;6487;48.626;12.486;2023-02-07T08:33:08;18.07;;;12.30;;
12840;SDS011;6487;48.626;12.486;2023-02-07T08:35:36;17.70;;;13.17;;
12840;SDS011;6487;48.626;12.486;2023-02-07T08:38:05;19.30;;;13.07;;
12840;SDS011;6487;48.626;12.486;2023-02-07T08:40:33;16.87;;;13.87;;
12840;SDS011;6487;48.626;12.486;2023-02-07T08:43:02;21.00;;;14.70;;
12840;SDS011;6487;48.626;12.486;2023-02-07T08:45:39;21.37;;;13.50;;
12840;SDS011;6487;48.626;12.486;2023-02-07T08:48:08;18.10;;;14.07;;
12840;SDS011;6487;48.626;12.486;2023-02-07T08:50:37;20.97;;;15.60;;
12840;SDS011;6487;48.626;12.486;2023-02-07T08:53:06;18.53;;;14.03;;
12840;SDS011;6487;48.626;12.486;2023-02-07T08:55:34;17.90;;;14.67;;
12840;SDS011;6487;48.626;12.486;2023-02-07T08:58:03;17.37;;;13.43;;
12840;SDS011;6487;48.626;12.486;2023-02-07T09:00:31;21.47;;;16.00;;
12840;SDS011;6487;48.626;12.486;2023-02-07T09:03:02;18.10;;;14.77;;
12840;SDS011;6487;48.626;12.486;2023-02-07T09:05:30;21.73;;;15.37;;
12840;SDS011;6487;48.626;12.486;2023-02-07T09:07:59;18.27;;;13.37;;
12840;SDS011;6487;48.626;12.486;2023-02-07T09:10:28;22.53;;;16.03;;
12840;SDS011;6487;48.626;12.486;2023-02-07T09:12:57;20.87;;;15.10;;
12840;SDS011;6487;48.626;12.486;2023-02-07T09:15:25;18.50;;;14.07;;
12840;SDS011;6487;48.626;12.486;2023-02-07T09:17:53;20.23;;;15.63;;
12840;SDS011;6487;48.626;12.486;2023-02-07T09:20:23;20.80;;;15.33;;
12840;SDS011;6487;48.626;12.486;2023-02-07T09:22:52;18.13;;;13.53;;
12840;SDS011;6487;48.626;12.486;2023-02-07T09:25:38;17.20;;;12.87;;
12840;SDS011;6487;48.626;12.486;2023-02-07T09:28:08;17.03;;;13.07;;
12840;SDS011;6487;48.626;12.486;2023-02-07T09:30:38;16.27;;;12.47;;
12840;SDS011;6487;48.626;12.486;2023-02-07T09:33:08;16.97;;;12.73;;
12840;SDS011;6487;48.626;12.486;2023-02-07T09:35:38;19.63;;;14.10;;
12840;SDS011;6487;48.626;12.486;2023-02-07T09:38:10;16.37;;;13.27;;
12840;SDS011;6487;48.626;12.486;2023-02-07T09:40:41;16.93;;;13.97;;
12840;SDS011;6487;48.626;12.486;2023-02-07T09:43:13;17.27;;;13.53;;
12840;SDS011;6487;48.626;12.486;2023-02-07T09:46:04;15.80;;;12.20;;
12840;SDS011;6487;48.626;12.486;2023-02-07T09:48:42;15.37;;;12.40;;
12840;SDS011;6487;48.626;12.486;2023-02-07T09:51:16;16.80;;;12.43;;
12840;SDS011;6487;48.626;12.486;2023-02-07T09:53:49;15.83;;;12.03;;
12840;SDS011;6487;48.626;12.486;2023-02-07T09:56:22;15.40;;;12.17;;
12840;SDS011;6487;48.626;12.486;2023-02-07T09:58:55;16.50;;;11.97;;
12840;SDS011;6487;48.626;12.486;2023-02-07T10:01:28;16.93;;;12.43;;
12840;SDS011;6487;48.626;12.486;2023-02-07T10:04:05;14.97;;;12.33;;
12840;SDS011;6487;48.626;12.486;2023-02-07T10:06:50;16.37;;;12.10;;
12840;SDS011;6487;48.626;12.486;2023-02-07T10:09:23;15.93;;;11.90;;
12840;SDS011;6487;48.626;12.486;2023-02-07T10:11:56;17.40;;;12.77;;
12840;SDS011;6487;48.626;12.486;2023-02-07T10:14:47;17.30;;;12.77;;
12840;SDS011;6487;48.626;12.486;2023-02-07T10:17:37;14.03;;;11.57;;
12840;SDS011;6487;48.626;12.486;2023-02-07T10:20:23;14.47;;;12.20;;
12840;SDS011;6487;48.626;12.486;2023-02-07T10:23:05;18.47;;;13.03;;
12840;SDS011;6487;48.626;12.486;2023-02-07T10:25:53;15.03;;;12.63;;
12840;SDS011;6487;48.626;12.486;2023-02-07T10:28:35;15.83;;;12.37;;
12840;SDS011;6487;48.626;12.486;2023-02-07T10:31:20;14.97;;;12.77;;
12840;SDS011;6487;48.626;12.486;2023-02-07T10:33:52;16.37;;;13.27;;
12840;SDS011;6487;48.626;12.486;2023-02-07T10:36:25;16.00;;;12.50;;
12840;SDS011;6487;48.626;12.486;2023-02-07T10:39:02;14.60;;;12.33;;
12840;SDS011;6487;48.626;12.486;2023-02-07T10:41:41;12.77;;;11.27;;
12840;SDS011;6487;48.626;12.486;2023-02-07T10:44:11;13.97;;;11.17;;
12840;SDS011;6487;48.626;12.486;2023-02-07T10:46:43;12.80;;;11.00;;
12840;SDS011;6487;48.626;12.486;2023-02-07T10:49:16;13.07;;;10.00;;
12840;SDS011;6487;48.626;12.486;2023-02-07T10:51:51;13.10;;;11.00;;
12840;SDS011;6487;48.626;12.486;2023-02-07T10:54:25;12.67;;;9.70;;
12840;SDS011;6487;48.626;12.486;2023-02-07T10:56:53;10.60;;;9.50;;
12840;SDS011;6487;48.626;12.486;2023-02-07T10:59:29;12.30;;;9.50;;
12840;SDS011;6487;48.626;12.486;2023-02-07T11:08:20;11.27;;;9.00;;
12840;SDS011;6487;48.626;12.486;2023-02-07T11:10:54;9.10;;;8.07;;
12840;SDS011;6487;48.626;12.486;2023-02-07T11:13:25;11.43;;;8.60;;
12840;SDS011;6487;48.626;12.486;2023-02-07T11:15:56;9.27;;;7.17;;
12840;SDS011;6487;48.626;12.486;2023-02-07T11:18:34;13.97;;;8.00;;
12840;SDS011;6487;48.626;12.486;2023-02-07T11:21:21;9.90;;;7.57;;
12840;SDS011;6487;48.626;12.486;2023-02-07T11:23:57;8.53;;;7.27;;
12840;SDS011;6487;48.626;12.486;2023-02-07T11:26:31;7.97;;;7.17;;
12840;SDS011;6487;48.626;12.486;2023-02-07T11:29:04;9.27;;;7.23;;
12840;SDS011;6487;48.626;12.486;2023-02-07T11:31:40;6.97;;;6.27;;
12840;SDS011;6487;48.626;12.486;2023-02-07T11:34:25;9.40;;;7.63;;
12840;SDS011;6487;48.626;12.486;2023-02-07T11:37:18;9.13;;;7.53;;
12840;SDS011;6487;48.626;12.486;2023-02-07T11:39:54;9.63;;;7.40;;
12840;SDS011;6487;48.626;12.486;2023-02-07T11:42:48;11.00;;;7.87;;
12840;SDS011;6487;48.626;12.486;2023-02-07T11:45:20;10.03;;;7.90;;
12840;SDS011;6487;48.626;12.486;2023-02-07T11:47:51;9.63;;;7.23;;
12840;SDS011;6487;48.626;12.486;2023-02-07T11:50:23;8.17;;;7.30;;
12840;SDS011;6487;48.626;12.486;2023-02-07T11:52:56;11.23;;;8.77;;
12840;SDS011;6487;48.626;12.486;2023-02-07T11:55:27;9.93;;;7.20;;
12840;SDS011;6487;48.626;12.486;2023-02-07T11:58:07;9.53;;;7.70;;
12840;SDS011;6487;48.626;12.486;2023-02-07T12:00:40;8.73;;;7.20;;
12840;SDS011;6487;48.626;12.486;2023-02-07T12:03:21;7.40;;;6.40;;
12840;SDS011;6487;48.626;12.486;2023-02-07T12:05:52;8.63;;;6.87;;
12840;SDS011;6487;48.626;12.486;2023-02-07T12:08:26;7.60;;;6.20;;
12840;SDS011;6487;48.626;12.486;2023-02-07T12:10:58;7.00;;;6.23;;
12840;SDS011;6487;48.626;12.486;2023-02-07T12:13:34;6.77;;;5.93;;
12840;SDS011;6487;48.626;12.486;2023-02-07T12:16:07;6.80;;;5.87;;
12840;SDS011;6487;48.626;12.486;2023-02-07T12:18:40;8.40;;;6.30;;
12840;SDS011;6487;48.626;12.486;2023-02-07T12:21:16;7.80;;;6.23;;
12840;SDS011;6487;48.626;12.486;2023-02-07T12:23:51;7.77;;;5.90;;
12840;SDS011;6487;48.626;12.486;2023-02-07T12:26:26;8.40;;;6.40;;
12840;SDS011;6487;48.626;12.486;2023-02-07T12:29:08;8.30;;;6.60;;
12840;SDS011;6487;48.626;12.486;2023-02-07T12:31:53;8.27;;;6.80;;
12840;SDS011;6487;48.626;12.486;2023-02-07T12:34:31;8.50;;;6.77;;
12840;SDS011;6487;48.626;12.486;2023-02-07T12:37:07;7.83;;;6.03;;
12840;SDS011;6487;48.626;12.486;2023-02-07T12:39:47;8.00;;;6.13;;
12840;SDS011;6487;48.626;12.486;2023-02-07T12:42:26;7.00;;;5.70;;
12840;SDS011;6487;48.626;12.486;2023-02-07T12:45:03;7.73;;;5.60;;
12840;SDS011;6487;48.626;12.486;2023-02-07T12:47:37;6.47;;;5.33;;
12840;SDS011;6487;48.626;12.486;2023-02-07T12:50:19;6.87;;;5.27;;
12840;SDS011;6487;48.626;12.486;2023-02-07T12:53:19;6.73;;;5.33;;
12840;SDS011;6487;48.626;12.486;2023-02-07T12:56:04;8.33;;;6.40;;
12840;SDS011;6487;48.626;12.486;2023-02-07T12:58:50;11.80;;;7.23;;
12840;SDS011;6487;48.626;12.486;2023-02-07T13:01:29;10.97;;;8.80;;
12840;SDS011;6487;48.626;12.486;2023-02-07T13:07:22;9.70;;;8.33;;
12840;SDS011;6487;48.626;12.486;2023-02-07T13:10:08;9.83;;;8.17;;
12840;SDS011;6487;48.626;12.486;2023-02-07T13:12:48;9.20;;;8.17;;
12840;SDS011;6487;48.626;12.486;2023-02-07T13:15:25;8.93;;;7.90;;
12840;SDS011;6487;48.626;12.486;2023-02-07T13:18:06;9.17;;;7.07;;
12840;SDS011;6487;48.626;12.486;2023-02-07T13:20:51;10.50;;;8.37;;
12840;SDS011;6487;48.626;12.486;2023-02-07T13:23:27;9.40;;;8.37;;
12840;SDS011;6487;48.626;12.486;2023-02-07T13:26:01;8.40;;;6.53;;
12840;SDS011;6487;48.626;12.486;2023-02-07T13:28:35;8.90;;;6.50;;
12840;SDS011;6487;48.626;12.486;2023-02-07T13:31:10;7.77;;;6.23;;
12840;SDS011;6487;48.626;12.486;2023-02-07T13:33:44;11.20;;;8.47;;
12840;SDS011;6487;48.626;12.486;2023-02-07T13:36:17;9.17;;;8.10;;
12840;SDS011;6487;48.626;12.486;2023-02-07T13:38:57;8.20;;;6.53;;
12840;SDS011;6487;48.626;12.486;2023-02-07T13:41:38;7.07;;;5.93;;
12840;SDS011;6487;48.626;12.486;2023-02-07T13:44:16;8.57;;;7.13;;
12840;SDS011;6487;48.626;12.486;2023-02-07T13:49:56;10.40;;;6.90;;
12840;SDS011;6487;48.626;12.486;2023-02-07T13:52:38;8.23;;;6.63;;
12840;SDS011;6487;48.626;12.486;2023-02-07T13:55:18;9.43;;;7.67;;
12840;SDS011;6487;48.626;12.486;2023-02-07T13:57:53;9.10;;;7.30;;
12840;SDS011;6487;48.626;12.486;2023-02-07T14:00:57;9.57;;;6.40;;
12840;SDS011;6487;48.626;12.486;2023-02-07T14:03:35;8.23;;;6.37;;
12840;SDS011;6487;48.626;12.486;2023-02-07T14:06:15;7.27;;;6.40;;
12840;SDS011;6487;48.626;12.486;2023-02-07T14:08:59;8.13;;;6.70;;
12840;SDS011;6487;48.626;12.486;2023-02-07T14:11:36;11.97;;;5.87;;
12840;SDS011;6487;48.626;12.486;2023-02-07T14:14:13;7.90;;;6.50;;
12840;SDS011;6487;48.626;12.486;2023-02-07T14:16:50;7.93;;;6.70;;
12840;SDS011;6487;48.626;12.486;2023-02-07T14:22:22;11.40;;;7.23;;
12840;SDS011;6487;48.626;12.486;2023-02-07T14:31:15;7.50;;;5.50;;
12840;SDS011;6487;48.626;12.486;2023-02-07T14:36:40;7.60;;;6.27;;
12840;SDS011;6487;48.626;12.486;2023-02-07T14:39:23;7.70;;;5.73;;
12840;SDS011;6487;48.626;12.486;2023-02-07T14:42:01;7.47;;;5.70;;
12840;SDS011;6487;48.626;12.486;2023-02-07T14:44:38;7.80;;;5.30;;
12840;SDS011;6487;48.626;12.486;2023-02-07T14:47:15;7.57;;;5.67;;
12840;SDS011;6487;48.626;12.486;2023-02-07T14:49:48;26.73;;;15.53;;
12840;SDS011;6487;48.626;12.486;2023-02-07T14:52:21;10.77;;;6.90;;
12840;SDS011;6487;48.626;12.486;2023-02-07T14:54:54;8.57;;;6.07;;
12840;SDS011;6487;48.626;12.486;2023-02-07T14:57:31;7.67;;;5.30;;
12840;SDS011;6487;48.626;12.486;2023-02-07T15:00:21;7.73;;;6.07;;
12840;SDS011;6487;48.626;12.486;2023-02-07T15:02:58;8.57;;;5.73;;
12840;SDS011;6487;48.626;12.486;2023-02-07T15:05:31;7.20;;;5.20;;
12840;SDS011;6487;48.626;12.486;2023-02-07T15:08:06;8.57;;;5.10;;
12840;SDS011;6487;48.626;12.486;2023-02-07T15:10:45;8.47;;;5.63;;
12840;SDS011;6487;48.626;12.486;2023-02-07T15:13:22;9.57;;;4.77;;
12840;SDS011;6487;48.626;12.486;2023-02-07T15:15:55;8.60;;;5.73;;
12840;SDS011;6487;48.626;12.486;2023-02-07T15:18:27;9.30;;;5.63;;
12840;SDS011;6487;48.626;12.486;2023-02-07T15:21:00;7.60;;;6.17;;
12840;SDS011;6487;48.626;12.486;2023-02-07T15:23:29;9.70;;;5.73;;
12840;SDS011;6487;48.626;12.486;2023-02-07T15:26:01;8.37;;;5.60;;
12840;SDS011;6487;48.626;12.486;2023-02-07T15:28:33;9.90;;;7.17;;
12840;SDS011;6487;48.626;12.486;2023-02-07T15:31:03;11.00;;;7.83;;
12840;SDS011;6487;48.626;12.486;2023-02-07T15:33:36;23.63;;;16.97;;
12840;SDS011;6487;48.626;12.486;2023-02-07T15:38:57;14.93;;;10.93;;
12840;SDS011;6487;48.626;12.486;2023-02-07T15:41:28;12.13;;;8.83;;
12840;SDS011;6487;48.626;12.486;2023-02-07T15:43:57;12.43;;;7.53;;
12840;SDS011;6487;48.626;12.486;2023-02-07T15:46:42;8.30;;;6.70;;
12840;SDS011;6487;48.626;12.486;2023-02-07T15:49:22;8.67;;;6.63;;